Time;durP1;ratioP1;P1;durP2;ratioP2;P2;SDS_P1;SDS_P2;PMS_P1;PMS_P2;Temp;Humidity;BMP_temperature;BMP_pressure;BME280_temperature;BME280_humidity;BME280_pressure;Samples;Min_cycle;Max_cycle;Signal;HPM_P1;HPM_P2
2021/09/21 00:00:28;;;;;;;8.47;7.10;;;15.20;99.90;;;;;;5053825;28;20235;-58
2021/09/21 00:02:55;;;;;;;8.17;7.37;;;15.10;99.90;;;;;;5053375;28;20210;-58
2021/09/21 00:05:22;;;;;;;8.17;7.37;;;15.10;99.90;;;;;;5052842;28;20201;-58
2021/09/21 00:07:49;;;;;;;8.20;7.30;;;15.10;99.90;;;;;;5053244;28;20217;-59
2021/09/21 00:10:17;;;;;;;7.50;6.73;;;15.10;99.90;;;;;;5053264;28;20209;-58
2021/09/21 00:12:44;;;;;;;6.93;6.30;;;15.10;99.90;;;;;;5053583;28;20206;-59
2021/09/21 00:15:14;;;;;;;7.27;6.57;;;15.10;99.90;;;;;;5052907;28;20284;-59
2021/09/21 00:17:42;;;;;;;7.23;6.53;;;15.20;99.90;;;;;;5052841;28;20205;-58
2021/09/21 00:20:11;;;;;;;7.13;6.20;;;15.30;99.90;;;;;;5052986;28;20260;-59
2021/09/21 00:22:38;;;;;;;6.93;5.87;;;15.30;99.90;;;;;;5052998;28;20637;-58
2021/09/21 00:25:06;;;;;;;7.33;6.50;;;15.40;99.90;;;;;;5052916;28;20206;-60
2021/09/21 00:27:32;;;;;;;7.67;6.87;;;15.40;99.90;;;;;;5052701;28;20209;-60
2021/09/21 00:29:59;;;;;;;7.77;6.40;;;15.40;99.90;;;;;;5052717;28;20201;-59
2021/09/21 00:32:27;;;;;;;6.80;6.10;;;15.40;99.90;;;;;;5052608;28;20241;-58
2021/09/21 00:34:55;;;;;;;6.80;6.10;;;15.50;99.90;;;;;;5052155;28;20705;-59
2021/09/21 00:37:21;;;;;;;6.30;5.70;;;15.50;99.90;;;;;;5052710;28;20210;-59
2021/09/21 00:39:48;;;;;;;7.57;6.00;;;15.50;99.90;;;;;;5052474;28;20222;-59
2021/09/21 00:42:22;;;;;;;8.90;5.80;;;15.50;99.90;;;;;;5052755;28;20210;-59
2021/09/21 00:44:54;;;;;;;7.23;6.33;;;15.40;99.90;;;;;;5052955;28;20205;-58
2021/09/21 00:47:22;;;;;;;6.37;5.77;;;15.40;99.90;;;;;;5052255;28;20228;-58
2021/09/21 00:49:50;;;;;;;6.67;6.00;;;15.40;99.90;;;;;;5051987;28;20765;-58
2021/09/21 00:52:17;;;;;;;6.47;5.87;;;15.40;99.90;;;;;;5052481;28;20209;-58
2021/09/21 00:54:43;;;;;;;7.37;6.43;;;15.30;99.90;;;;;;5052071;28;20205;-59
2021/09/21 00:57:11;;;;;;;8.87;6.67;;;15.20;99.90;;;;;;5052521;28;20201;-60
2021/09/21 00:59:38;;;;;;;7.60;6.70;;;15.20;99.90;;;;;;5052145;28;20256;-58
2021/09/21 01:02:05;;;;;;;7.57;6.87;;;15.20;99.90;;;;;;5052238;28;20213;-60
2021/09/21 01:04:32;;;;;;;8.17;7.20;;;15.20;99.90;;;;;;5051821;28;20205;-59
2021/09/21 01:07:00;;;;;;;7.63;6.93;;;15.20;99.90;;;;;;5052000;28;20209;-58
2021/09/21 01:09:27;;;;;;;8.07;7.27;;;15.20;99.90;;;;;;5051511;28;20240;-59
2021/09/21 01:11:56;;;;;;;13.23;7.33;;;15.20;99.90;;;;;;5052117;28;20209;-60
2021/09/21 01:14:23;;;;;;;8.10;6.50;;;15.20;99.90;;;;;;5051636;28;20202;-59
2021/09/21 01:16:52;;;;;;;8.77;7.40;;;15.30;99.90;;;;;;5051648;28;20222;-60
2021/09/21 01:19:19;;;;;;;7.43;6.43;;;15.40;99.90;;;;;;5051738;28;20225;-59
2021/09/21 01:21:48;;;;;;;6.37;5.77;;;15.50;99.90;;;;;;5051796;28;20209;-60
2021/09/21 01:24:17;;;;;;;6.27;5.67;;;15.50;99.90;;;;;;5051567;28;20220;-59
2021/09/21 01:26:44;;;;;;;6.70;6.07;;;15.50;99.90;;;;;;5051943;28;20202;-59
2021/09/21 01:29:10;;;;;;;8.33;6.47;;;15.50;99.90;;;;;;5051382;28;20645;-59
2021/09/21 01:31:39;;;;;;;6.37;5.77;;;15.50;99.90;;;;;;5051530;28;20665;-59
2021/09/21 01:34:07;;;;;;;6.97;6.00;;;15.50;99.90;;;;;;5051458;28;20259;-59
2021/09/21 01:36:33;;;;;;;7.73;6.33;;;15.40;99.90;;;;;;5051504;28;20225;-60
2021/09/21 01:39:02;;;;;;;9.47;6.50;;;15.40;99.90;;;;;;5051732;28;20588;-59
2021/09/21 01:41:28;;;;;;;7.33;6.43;;;15.40;99.90;;;;;;5051446;28;20208;-58
2021/09/21 01:43:55;;;;;;;7.37;6.33;;;15.30;99.90;;;;;;5051423;28;20213;-60
2021/09/21 01:46:24;;;;;;;8.07;6.43;;;15.40;99.90;;;;;;5051618;28;20202;-60
2021/09/21 01:48:51;;;;;;;11.63;6.70;;;15.40;99.90;;;;;;5051816;28;20295;-60
2021/09/21 01:51:24;;;;;;;8.40;6.60;;;15.40;99.90;;;;;;5051532;28;20578;-60
2021/09/21 01:53:58;;;;;;;6.97;6.27;;;15.30;99.90;;;;;;5051162;28;20256;-59
2021/09/21 01:59:10;;;;;;;6.70;6.10;;;15.30;99.90;;;;;;5051120;28;20236;-59
2021/09/21 02:01:37;;;;;;;7.27;6.43;;;15.30;99.90;;;;;;5051107;28;20205;-59
2021/09/21 02:04:07;;;;;;;6.30;5.70;;;15.30;99.90;;;;;;5050863;28;20206;-60
2021/09/21 02:06:37;;;;;;;11.80;6.77;;;15.30;99.90;;;;;;5051138;28;20227;-59
2021/09/21 02:09:05;;;;;;;6.97;6.27;;;15.30;99.90;;;;;;5050795;28;20237;-60
2021/09/21 02:11:33;;;;;;;7.17;6.47;;;15.30;99.90;;;;;;5051186;28;20210;-60
2021/09/21 02:14:00;;;;;;;6.73;6.10;;;15.30;99.90;;;;;;5050859;28;20605;-60
2021/09/21 02:16:29;;;;;;;7.73;6.43;;;15.20;99.90;;;;;;5050776;28;20717;-60
2021/09/21 02:18:56;;;;;;;7.33;6.07;;;15.20;99.90;;;;;;5050698;28;20255;-60
2021/09/21 02:21:24;;;;;;;7.17;6.47;;;15.20;99.90;;;;;;5050572;28;20209;-60
2021/09/21 02:23:51;;;;;;;6.77;6.07;;;15.20;99.90;;;;;;5050868;28;20209;-60
2021/09/21 02:26:18;;;;;;;8.03;6.50;;;15.20;99.90;;;;;;5050860;28;20206;-60
2021/09/21 02:28:46;;;;;;;6.40;5.77;;;15.20;99.90;;;;;;5050649;28;20252;-59
2021/09/21 02:31:13;;;;;;;11.50;6.70;;;15.20;99.90;;;;;;5050635;28;20209;-59
2021/09/21 02:33:40;;;;;;;9.13;6.33;;;15.10;99.90;;;;;;5050471;28;20878;-60
2021/09/21 02:36:07;;;;;;;8.67;6.23;;;15.10;99.90;;;;;;5050750;28;20308;-60
2021/09/21 02:38:34;;;;;;;8.30;6.50;;;15.00;99.90;;;;;;5050738;28;20221;-60
2021/09/21 02:41:01;;;;;;;8.50;6.13;;;14.90;99.90;;;;;;5050645;28;20209;-60
2021/09/21 02:43:28;;;;;;;9.00;6.40;;;14.80;99.90;;;;;;5050517;28;20216;-60
2021/09/21 02:45:59;;;;;;;7.40;6.70;;;14.80;99.90;;;;;;5050403;28;20262;-60
2021/09/21 02:48:25;;;;;;;8.17;6.57;;;14.80;99.90;;;;;;5050639;28;20367;-60
2021/09/21 02:50:52;;;;;;;7.47;5.93;;;14.80;99.90;;;;;;5050777;28;20205;-60
2021/09/21 02:53:19;;;;;;;6.47;5.83;;;14.80;99.90;;;;;;5050799;28;20205;-60
2021/09/21 02:55:45;;;;;;;8.40;6.40;;;14.80;99.90;;;;;;5050394;28;20711;-59
2021/09/21 02:58:13;;;;;;;10.50;5.97;;;14.80;99.90;;;;;;5050381;28;20282;-60
2021/09/21 03:00:39;;;;;;;6.77;6.07;;;14.70;99.90;;;;;;5050540;28;20590;-59
2021/09/21 03:03:08;;;;;;;7.60;6.70;;;14.70;99.90;;;;;;5050698;28;20259;-60
2021/09/21 03:05:39;;;;;;;7.17;6.30;;;14.70;99.90;;;;;;5050673;28;20198;-60
2021/09/21 03:08:09;;;;;;;6.80;6.20;;;14.60;99.90;;;;;;5050645;28;20256;-59
2021/09/21 03:10:52;;;;;;;8.40;7.60;;;14.70;99.90;;;;;;5050906;28;20205;-59
2021/09/21 03:13:26;;;;;;;8.30;6.60;;;14.80;99.90;;;;;;5050653;28;20209;-60
2021/09/21 03:18:39;;;;;;;7.27;6.57;;;14.80;99.90;;;;;;5050268;28;20245;-59
2021/09/21 03:21:06;;;;;;;8.30;6.70;;;14.80;99.90;;;;;;5050505;28;20206;-60
2021/09/21 03:23:33;;;;;;;7.27;6.57;;;14.70;99.90;;;;;;5050666;28;20201;-59
2021/09/21 03:26:00;;;;;;;7.60;6.90;;;14.70;99.90;;;;;;5050476;28;20201;-60
2021/09/21 03:28:27;;;;;;;7.73;6.93;;;14.60;99.90;;;;;;5050113;28;20234;-60
2021/09/21 03:30:53;;;;;;;8.50;6.97;;;14.60;99.90;;;;;;5050322;28;20214;-60
2021/09/21 03:33:20;;;;;;;8.27;6.57;;;14.40;99.90;;;;;;5051712;28;20205;-60
2021/09/21 03:35:48;;;;;;;9.87;7.77;;;14.20;99.90;;;;;;5053424;28;20221;-58
2021/09/21 03:38:15;;;;;;;7.90;7.10;;;14.00;99.90;;;;;;5053501;28;20256;-59
2021/09/21 03:40:43;;;;;;;8.93;6.77;;;14.00;99.90;;;;;;5053944;28;20213;-59
2021/09/21 03:43:09;;;;;;;8.53;7.00;;;13.90;99.90;;;;;;5053594;28;20221;-59
2021/09/21 03:45:36;;;;;;;9.50;7.47;;;13.90;99.90;;;;;;5053336;28;20701;-59
2021/09/21 03:48:06;;;;;;;7.73;6.93;;;13.90;99.90;;;;;;5053222;28;20629;-59
2021/09/21 03:50:33;;;;;;;7.77;7.00;;;13.90;99.90;;;;;;5053625;28;20232;-60
2021/09/21 03:53:01;;;;;;;8.93;7.73;;;13.90;99.90;;;;;;5053633;28;20208;-59
2021/09/21 03:55:28;;;;;;;10.37;7.70;;;13.90;99.90;;;;;;5053564;28;20618;-60
2021/09/21 03:57:55;;;;;;;9.43;7.77;;;13.90;99.90;;;;;;5053215;28;20242;-60
2021/09/21 04:00:21;;;;;;;10.80;7.90;;;14.00;99.90;;;;;;5053329;28;20370;-62
2021/09/21 04:02:48;;;;;;;9.07;8.10;;;14.00;99.90;;;;;;5053182;28;20205;-60
2021/09/21 04:05:15;;;;;;;10.47;8.47;;;14.00;99.90;;;;;;5053154;28;20587;-60
2021/09/21 04:07:41;;;;;;;9.47;7.93;;;14.10;99.90;;;;;;5052976;28;20264;-60
2021/09/21 04:10:11;;;;;;;11.93;7.87;;;14.10;99.90;;;;;;5053785;28;20212;-59
2021/09/21 04:12:38;;;;;;;9.00;7.93;;;14.10;99.90;;;;;;5053417;28;20209;-59
2021/09/21 04:15:05;;;;;;;8.20;7.40;;;14.10;99.90;;;;;;5053094;28;20210;-58
2021/09/21 04:17:32;;;;;;;8.20;6.97;;;14.10;99.90;;;;;;5053101;28;20221;-59
2021/09/21 04:19:59;;;;;;;9.10;7.70;;;14.10;99.90;;;;;;5053118;28;20208;-59
2021/09/21 04:22:27;;;;;;;9.43;8.13;;;14.10;99.90;;;;;;5053264;28;20251;-58
2021/09/21 04:24:54;;;;;;;10.53;7.63;;;14.10;99.90;;;;;;5052883;28;20201;-58
2021/09/21 04:27:22;;;;;;;7.80;7.10;;;14.00;99.90;;;;;;5053180;28;20405;-58
2021/09/21 04:29:54;;;;;;;10.63;8.60;;;14.00;99.90;;;;;;5052663;28;20226;-60
2021/09/21 04:32:21;;;;;;;9.37;7.07;;;14.10;99.90;;;;;;5053079;28;20225;-59
2021/09/21 04:34:48;;;;;;;9.13;7.93;;;14.10;99.90;;;;;;5052661;28;20739;-58
2021/09/21 04:37:15;;;;;;;8.13;7.33;;;14.00;99.90;;;;;;5052905;28;20230;-58
2021/09/21 04:39:42;;;;;;;9.83;8.83;;;14.20;99.90;;;;;;5052153;28;20240;-59
2021/09/21 04:42:09;;;;;;;8.40;7.60;;;14.10;99.90;;;;;;5052441;28;20293;-60
2021/09/21 04:44:37;;;;;;;7.97;7.20;;;14.10;99.90;;;;;;5051714;28;20210;-59
2021/09/21 04:47:05;;;;;;;9.03;7.77;;;14.10;99.90;;;;;;5052376;28;20255;-59
2021/09/21 04:49:32;;;;;;;8.73;6.77;;;14.10;99.90;;;;;;5052148;28;20782;-60
2021/09/21 04:51:59;;;;;;;7.57;6.33;;;14.20;99.90;;;;;;5052394;28;20210;-59
2021/09/21 04:54:26;;;;;;;7.23;6.60;;;14.10;99.90;;;;;;5052293;28;20205;-58
2021/09/21 04:56:52;;;;;;;8.60;6.93;;;14.00;99.90;;;;;;5052120;28;20217;-59
2021/09/21 04:59:19;;;;;;;8.80;6.70;;;14.00;99.90;;;;;;5051781;28;20248;-59
2021/09/21 05:01:47;;;;;;;7.57;6.80;;;14.10;99.90;;;;;;5052144;28;20209;-60
2021/09/21 05:04:14;;;;;;;8.37;6.50;;;14.10;99.90;;;;;;5051869;28;20278;-59
2021/09/21 05:06:40;;;;;;;8.60;6.90;;;14.10;99.90;;;;;;5052051;28;20213;-58
2021/09/21 05:09:11;;;;;;;7.43;6.57;;;14.20;99.90;;;;;;5051520;28;20233;-61
2021/09/21 05:11:38;;;;;;;7.50;6.73;;;14.20;99.90;;;;;;5051568;28;20304;-61
2021/09/21 05:14:05;;;;;;;8.83;7.00;;;14.10;99.90;;;;;;5051733;28;20210;-62
2021/09/21 05:16:32;;;;;;;8.97;7.13;;;14.00;99.90;;;;;;5051588;28;20316;-60
2021/09/21 05:19:00;;;;;;;8.40;7.50;;;14.00;99.90;;;;;;5051474;28;20316;-60
2021/09/21 05:21:26;;;;;;;7.63;6.90;;;14.10;99.90;;;;;;5051631;28;20628;-58
2021/09/21 05:23:53;;;;;;;7.87;7.07;;;14.00;99.90;;;;;;5051492;28;20252;-59
2021/09/21 05:26:20;;;;;;;11.57;7.60;;;14.00;99.90;;;;;;5051503;28;20204;-59
2021/09/21 05:28:46;;;;;;;8.43;7.10;;;14.00;99.90;;;;;;5051463;28;20229;-59
2021/09/21 05:31:13;;;;;;;8.10;7.03;;;14.00;99.90;;;;;;5051699;28;20205;-58
2021/09/21 05:33:40;;;;;;;7.80;7.07;;;14.00;99.90;;;;;;5051438;28;20206;-59
2021/09/21 05:36:08;;;;;;;8.90;7.83;;;14.10;99.90;;;;;;5051447;28;20201;-59
2021/09/21 05:38:35;;;;;;;9.60;7.67;;;14.10;99.90;;;;;;5051023;28;20233;-58
2021/09/21 05:41:01;;;;;;;9.17;7.27;;;14.30;99.90;;;;;;5051193;28;20216;-58
2021/09/21 05:43:28;;;;;;;9.67;7.37;;;14.30;99.90;;;;;;5050951;28;20728;-59
2021/09/21 05:45:55;;;;;;;9.87;7.70;;;14.40;99.90;;;;;;5051402;28;20209;-59
2021/09/21 05:48:21;;;;;;;7.90;7.10;;;14.30;99.90;;;;;;5051826;28;20221;-58
2021/09/21 05:50:48;;;;;;;9.60;7.83;;;14.30;99.90;;;;;;5051463;28;20460;-59
2021/09/21 05:53:16;;;;;;;8.00;7.20;;;14.40;99.90;;;;;;5051105;28;20206;-59
2021/09/21 05:55:43;;;;;;;9.63;7.50;;;14.40;99.90;;;;;;5050751;28;20259;-59
2021/09/21 05:58:10;;;;;;;7.77;7.07;;;14.50;99.90;;;;;;5051386;28;20229;-59
2021/09/21 06:00:37;;;;;;;10.07;7.03;;;14.60;99.90;;;;;;5051221;28;20285;-58
2021/09/21 06:03:04;;;;;;;8.53;7.50;;;14.70;99.90;;;;;;5051249;28;20307;-59
2021/09/21 06:05:31;;;;;;;7.93;7.13;;;14.90;99.90;;;;;;5051034;28;20681;-59
2021/09/21 06:07:57;;;;;;;8.57;7.33;;;15.00;99.90;;;;;;5050679;28;20229;-59
2021/09/21 06:10:26;;;;;;;9.10;7.00;;;15.20;99.90;;;;;;5051188;28;20205;-59
2021/09/21 06:12:52;;;;;;;11.83;6.87;;;15.30;99.90;;;;;;5051093;28;20213;-59
2021/09/21 06:15:20;;;;;;;7.57;6.77;;;15.90;99.90;;;;;;5050812;28;20255;-58
2021/09/21 06:17:48;;;;;;;14.47;10.70;;;16.30;99.90;;;;;;5050372;28;20225;-59
2021/09/21 06:20:17;;;;;;;9.77;8.63;;;16.40;99.90;;;;;;5050937;28;20263;-59
2021/09/21 06:22:46;;;;;;;7.60;6.80;;;16.40;99.90;;;;;;5051455;28;20213;-58
2021/09/21 06:25:14;;;;;;;8.37;6.20;;;16.20;99.90;;;;;;5051052;28;20206;-59
2021/09/21 06:27:43;;;;;;;8.57;7.37;;;16.00;99.90;;;;;;5050685;28;20201;-59
2021/09/21 06:30:12;;;;;;;7.60;6.73;;;15.90;99.90;;;;;;5050443;28;20654;-58
2021/09/21 06:32:39;;;;;;;8.20;7.30;;;15.70;99.90;;;;;;5050648;28;20292;-59
2021/09/21 06:35:08;;;;;;;7.83;6.90;;;15.60;99.90;;;;;;5050486;28;20813;-59
2021/09/21 06:37:34;;;;;;;7.70;6.90;;;15.60;99.90;;;;;;5050568;28;20225;-61
2021/09/21 06:40:01;;;;;;;8.87;7.10;;;15.40;99.90;;;;;;5050318;28;20218;-58
2021/09/21 06:42:31;;;;;;;7.20;6.50;;;15.50;99.90;;;;;;5050698;28;20209;-59
2021/09/21 06:44:59;;;;;;;7.03;6.33;;;15.60;99.90;;;;;;5050667;28;20241;-58
2021/09/21 06:47:25;;;;;;;9.77;7.13;;;15.50;99.90;;;;;;5050664;28;20206;-58
2021/09/21 06:49:52;;;;;;;7.50;6.70;;;15.40;99.90;;;;;;5050162;28;20229;-59
2021/09/21 06:52:19;;;;;;;9.53;7.20;;;15.50;99.90;;;;;;5050755;28;20252;-59
2021/09/21 06:54:45;;;;;;;7.90;7.10;;;15.70;99.90;;;;;;5050318;28;20696;-59
2021/09/21 06:57:12;;;;;;;7.83;6.90;;;15.80;99.90;;;;;;5050564;28;20232;-59
2021/09/21 06:59:39;;;;;;;9.07;6.10;;;15.80;99.90;;;;;;5050383;28;20229;-59
2021/09/21 07:02:07;;;;;;;6.67;6.07;;;15.80;99.90;;;;;;5050564;28;20614;-59
2021/09/21 07:04:34;;;;;;;8.40;6.50;;;15.90;99.90;;;;;;5050423;28;20297;-59
2021/09/21 07:07:00;;;;;;;8.87;6.27;;;16.00;99.90;;;;;;5051464;28;20259;-58
2021/09/21 07:09:27;;;;;;;7.43;6.20;;;16.20;99.90;;;;;;5053924;28;20244;-63
2021/09/21 07:11:54;;;;;;;7.23;5.90;;;16.30;99.90;;;;;;5054084;28;20210;-58
2021/09/21 07:14:20;;;;;;;7.53;5.73;;;16.60;99.90;;;;;;5053995;28;20214;-59
2021/09/21 07:16:47;;;;;;;6.60;6.00;;;16.70;99.90;;;;;;5054317;28;20226;-59
2021/09/21 07:19:16;;;;;;;7.10;6.40;;;16.70;99.90;;;;;;5053580;28;20662;-59
2021/09/21 07:21:43;;;;;;;8.10;6.63;;;16.80;99.90;;;;;;5054273;28;20201;-59
2021/09/21 07:24:09;;;;;;;7.00;6.33;;;16.70;99.90;;;;;;5053915;28;20209;-59
2021/09/21 07:26:36;;;;;;;8.07;6.37;;;16.70;99.90;;;;;;5053810;28;20210;-59
2021/09/21 07:29:03;;;;;;;7.20;6.43;;;16.90;99.90;;;;;;5053584;28;20226;-59
2021/09/21 07:31:30;;;;;;;7.10;6.40;;;17.70;99.90;;;;;;5053936;28;20684;-59
2021/09/21 07:33:56;;;;;;;7.60;6.35;;;19.00;99.90;;;;;;5053830;28;20300;-59
2021/09/21 07:36:24;;;;;;;9.77;5.75;;;20.30;99.90;;;;;;5053751;28;20214;-65
2021/09/21 07:38:51;;;;;;;6.32;5.68;;;21.10;99.90;;;;;;5053328;28;20225;-59
2021/09/21 07:41:18;;;;;;;6.20;5.60;;;21.30;99.90;;;;;;5053461;28;20696;-59
2021/09/21 07:43:45;;;;;;;7.10;5.45;;;21.80;99.90;;;;;;5053335;28;20213;-59
2021/09/21 07:46:11;;;;;;;6.20;5.60;;;22.40;99.70;;;;;;5053840;28;20205;-59
2021/09/21 07:48:38;;;;;;;6.93;5.57;;;22.30;99.60;;;;;;5053564;28;20218;-59
2021/09/21 07:51:05;;;;;;;7.95;5.35;;;21.70;99.90;;;;;;5053335;28;20283;-59
2021/09/21 07:53:33;;;;;;;8.10;5.47;;;21.00;99.90;;;;;;5053138;28;20205;-59
2021/09/21 07:56:00;;;;;;;11.68;6.32;;;20.30;99.90;;;;;;5053250;28;20628;-59
2021/09/21 07:58:26;;;;;;;6.63;5.80;;;19.70;99.90;;;;;;5052953;28;20381;-59
2021/09/21 08:00:55;;;;;;;6.88;6.18;;;19.30;99.90;;;;;;5053323;28;20267;-59
2021/09/21 08:03:21;;;;;;;6.82;6.13;;;18.90;99.90;;;;;;5053304;28;20691;-59
2021/09/21 08:05:48;;;;;;;7.93;6.00;;;18.60;99.90;;;;;;5053499;28;20210;-59
2021/09/21 08:08:16;;;;;;;7.20;6.30;;;18.10;99.90;;;;;;5053056;28;20233;-59
2021/09/21 08:10:45;;;;;;;8.52;6.05;;;17.70;99.90;;;;;;5053325;28;20205;-61
2021/09/21 08:13:12;;;;;;;6.45;5.85;;;17.60;99.90;;;;;;5053023;28;20214;-61
2021/09/21 08:15:39;;;;;;;7.38;6.35;;;17.50;99.90;;;;;;5053135;28;20240;-60
2021/09/21 08:18:07;;;;;;;6.20;5.60;;;17.30;99.90;;;;;;5052424;28;20229;-61
2021/09/21 08:20:34;;;;;;;6.70;5.25;;;17.20;99.90;;;;;;5052599;28;20262;-61
2021/09/21 08:23:01;;;;;;;6.67;4.70;;;17.00;99.90;;;;;;5052764;28;20202;-59
2021/09/21 08:25:28;;;;;;;5.07;4.50;;;16.90;99.90;;;;;;5053042;28;20623;-61
2021/09/21 08:27:56;;;;;;;6.70;5.60;;;16.70;99.90;;;;;;5052783;28;20222;-61
2021/09/21 08:30:23;;;;;;;5.60;5.07;;;16.60;99.90;;;;;;5052759;28;20212;-60
2021/09/21 08:32:49;;;;;;;7.07;5.07;;;16.50;99.90;;;;;;5052793;28;20221;-60
2021/09/21 08:35:16;;;;;;;5.70;5.10;;;16.60;99.90;;;;;;5052518;28;20217;-59
2021/09/21 08:37:43;;;;;;;9.53;5.40;;;16.70;99.90;;;;;;5050525;28;20271;-58
2021/09/21 08:40:10;;;;;;;5.73;5.13;;;16.60;99.90;;;;;;5052278;28;20220;-58
2021/09/21 08:42:37;;;;;;;5.47;4.83;;;16.60;99.90;;;;;;5052453;28;20210;-58
2021/09/21 08:45:06;;;;;;;7.57;4.80;;;16.70;99.90;;;;;;5052333;28;20209;-58
2021/09/21 08:47:33;;;;;;;6.03;4.77;;;16.70;99.90;;;;;;5051994;28;20239;-58
2021/09/21 08:50:01;;;;;;;5.00;4.60;;;16.70;99.90;;;;;;5052145;28;20231;-58
2021/09/21 08:52:28;;;;;;;5.27;4.77;;;16.80;99.90;;;;;;5051939;28;20206;-58
2021/09/21 08:54:55;;;;;;;5.30;4.80;;;16.70;99.90;;;;;;5051970;28;20201;-57
2021/09/21 08:57:22;;;;;;;5.75;5.10;;;16.70;99.90;;;;;;5052125;28;20591;-58
2021/09/21 08:59:54;;;;;;;8.03;5.57;;;16.80;99.90;;;;;;5051793;28;20260;-59
2021/09/21 09:02:23;;;;;;;6.13;5.40;;;16.90;99.90;;;;;;5052293;28;20267;-58
2021/09/21 09:04:58;;;;;;;5.63;5.03;;;16.90;99.90;;;;;;5052223;28;20705;-56
2021/09/21 09:07:26;;;;;;;5.60;5.10;;;16.90;99.90;;;;;;5051959;28;20271;-56
2021/09/21 09:10:02;;;;;;;5.47;4.97;;;16.90;99.90;;;;;;5051572;28;20722;-57
2021/09/21 09:12:31;;;;;;;6.00;5.40;;;16.90;99.90;;;;;;5051954;28;20213;-57
2021/09/21 09:14:59;;;;;;;5.67;5.17;;;17.00;99.90;;;;;;5051723;28;20481;-55
2021/09/21 09:17:27;;;;;;;5.13;4.63;;;17.00;99.90;;;;;;5051618;28;20312;-56
2021/09/21 09:19:54;;;;;;;5.43;4.93;;;17.10;99.90;;;;;;5051532;28;20264;-60
2021/09/21 09:22:25;;;;;;;5.63;4.93;;;17.00;99.90;;;;;;5051602;28;20209;-59
2021/09/21 09:24:54;;;;;;;7.10;5.53;;;16.90;99.90;;;;;;5051416;28;20673;-60
2021/09/21 09:27:23;;;;;;;5.80;5.27;;;17.10;99.90;;;;;;5051414;28;20736;-60
2021/09/21 09:29:54;;;;;;;6.03;5.43;;;17.20;99.90;;;;;;5051139;28;20225;-59
2021/09/21 09:32:21;;;;;;;7.37;6.57;;;17.40;99.90;;;;;;5051303;28;20201;-61
2021/09/21 09:34:49;;;;;;;8.03;5.57;;;17.40;99.90;;;;;;5051344;28;20278;-61
2021/09/21 09:37:17;;;;;;;5.53;5.03;;;17.50;99.90;;;;;;5051607;28;20210;-61
2021/09/21 09:39:46;;;;;;;5.63;4.83;;;17.60;99.90;;;;;;5051031;28;20236;-58
2021/09/21 09:42:13;;;;;;;5.70;4.75;;;17.70;99.90;;;;;;5051142;28;20251;-57
2021/09/21 09:44:43;;;;;;;7.80;6.17;;;17.80;99.90;;;;;;5050902;28;20210;-55
2021/09/21 09:47:09;;;;;;;6.60;5.77;;;17.80;99.80;;;;;;5051437;28;20205;-55
2021/09/21 09:49:38;;;;;;;6.53;5.60;;;17.90;99.70;;;;;;5050970;28;20221;-56
2021/09/21 09:52:08;;;;;;;6.57;5.63;;;17.80;99.60;;;;;;5051009;28;20212;-56
2021/09/21 09:54:35;;;;;;;5.40;4.88;;;17.80;99.80;;;;;;5051105;28;20209;-56
2021/09/21 09:57:03;;;;;;;5.20;4.73;;;17.70;99.30;;;;;;5051179;28;20208;-56
2021/09/21 09:59:31;;;;;;;7.55;6.05;;;17.70;99.60;;;;;;5050684;28;20643;-57
2021/09/21 10:01:58;;;;;;;6.30;5.70;;;17.60;99.90;;;;;;5050900;28;20202;-55
2021/09/21 10:04:25;;;;;;;5.93;5.33;;;17.70;99.90;;;;;;5050777;28;20213;-57
2021/09/21 10:06:52;;;;;;;5.50;5.00;;;17.70;99.90;;;;;;5050781;28;20212;-55
2021/09/21 10:09:21;;;;;;;5.43;4.90;;;17.60;99.90;;;;;;5051330;28;20237;-57
2021/09/21 10:11:49;;;;;;;5.60;5.10;;;17.70;99.90;;;;;;5050848;28;20566;-56
2021/09/21 10:14:18;;;;;;;6.20;5.60;;;17.80;99.60;;;;;;5050834;28;20296;-55
2021/09/21 10:16:52;;;;;;;10.93;6.73;;;17.90;99.60;;;;;;5050784;28;20220;-55
2021/09/21 10:19:20;;;;;;;7.00;6.30;;;18.00;99.00;;;;;;5050445;28;20635;-55
2021/09/21 10:21:49;;;;;;;5.97;5.40;;;18.10;99.40;;;;;;5050630;28;20241;-55
2021/09/21 10:24:16;;;;;;;5.95;5.40;;;18.40;99.20;;;;;;5050487;28;20255;-57
2021/09/21 10:26:46;;;;;;;7.45;6.47;;;18.50;98.80;;;;;;5050862;28;20210;-55
2021/09/21 10:29:14;;;;;;;6.15;5.55;;;18.70;98.70;;;;;;5050616;28;20316;-55
2021/09/21 10:31:41;;;;;;;7.63;5.35;;;19.00;98.60;;;;;;5050873;28;20205;-55
2021/09/21 10:34:16;;;;;;;6.65;5.35;;;19.00;98.10;;;;;;5050704;28;20571;-56
2021/09/21 10:36:48;;;;;;;5.30;4.80;;;19.00;97.90;;;;;;5051372;28;20200;-55
2021/09/21 10:39:16;;;;;;;5.97;5.13;;;19.00;98.20;;;;;;5050438;28;20256;-55
2021/09/21 10:41:53;;;;;;;5.78;5.22;;;19.20;98.10;;;;;;5051138;28;20240;-55
2021/09/21 10:44:21;;;;;;;5.93;4.82;;;19.30;97.70;;;;;;5054454;28;20209;-55
2021/09/21 10:46:51;;;;;;;6.88;5.25;;;19.40;97.80;;;;;;5054545;28;20211;-57
2021/09/21 10:49:28;;;;;;;5.75;5.20;;;19.00;97.80;;;;;;5053986;28;20230;-58
2021/09/21 10:51:57;;;;;;;6.28;5.68;;;19.10;98.10;;;;;;5054412;28;20209;-57
2021/09/21 10:54:36;;;;;;;8.40;5.80;;;19.20;98.20;;;;;;5053985;28;20216;-56
2021/09/21 10:57:10;;;;;;;6.10;5.47;;;19.40;97.80;;;;;;5054194;28;20214;-56
2021/09/21 10:59:38;;;;;;;7.30;5.38;;;19.30;97.70;;;;;;5053614;28;20224;-55
2021/09/21 11:02:07;;;;;;;7.45;4.97;;;19.30;97.20;;;;;;5054116;28;20201;-55
2021/09/21 11:04:44;;;;;;;5.57;4.72;;;19.30;97.40;;;;;;5054129;28;20260;-55
2021/09/21 11:07:15;;;;;;;5.38;4.85;;;19.50;96.70;;;;;;5054262;28;20217;-57
2021/09/21 11:09:42;;;;;;;6.35;4.88;;;19.70;96.70;;;;;;5053716;28;20229;-55
2021/09/21 11:12:13;;;;;;;5.55;4.97;;;20.00;96.70;;;;;;5053747;28;20209;-57
2021/09/21 11:14:40;;;;;;;7.22;5.32;;;20.50;96.30;;;;;;5053856;28;20589;-55
2021/09/21 11:17:08;;;;;;;5.47;4.97;;;20.90;95.30;;;;;;5054111;28;20212;-57
2021/09/21 11:19:36;;;;;;;5.70;5.10;;;21.50;94.30;;;;;;5053590;28;20233;-56
2021/09/21 11:22:04;;;;;;;5.10;4.60;;;21.80;94.00;;;;;;5053674;28;20209;-58
2021/09/21 11:24:31;;;;;;;4.53;4.10;;;22.10;92.90;;;;;;5053527;28;20205;-56
2021/09/21 11:27:03;;;;;;;4.72;4.10;;;22.30;92.10;;;;;;5053715;28;20209;-55
2021/09/21 11:29:31;;;;;;;5.00;3.83;;;22.50;92.30;;;;;;5053612;28;20229;-55
2021/09/21 11:31:58;;;;;;;4.30;3.90;;;22.40;91.40;;;;;;5053644;28;20252;-56
2021/09/21 11:34:29;;;;;;;4.40;3.88;;;21.90;91.60;;;;;;5053436;28;20205;-57
2021/09/21 11:37:01;;;;;;;6.13;4.55;;;21.50;92.40;;;;;;5053539;28;20670;-55
2021/09/21 11:39:29;;;;;;;4.68;4.10;;;21.40;92.60;;;;;;5053359;28;20855;-55
2021/09/21 11:41:57;;;;;;;4.97;3.60;;;21.20;93.00;;;;;;5053491;28;20701;-55
2021/09/21 11:44:24;;;;;;;5.07;4.47;;;21.20;93.30;;;;;;5053340;28;20209;-55
2021/09/21 11:46:59;;;;;;;4.82;4.40;;;21.10;93.00;;;;;;5053690;28;20217;-57
2021/09/21 11:49:26;;;;;;;5.55;4.97;;;21.10;92.50;;;;;;5053465;28;20221;-56
2021/09/21 11:51:53;;;;;;;7.18;5.53;;;20.90;93.00;;;;;;5053404;28;20213;-57
2021/09/21 11:54:21;;;;;;;5.00;4.45;;;21.00;93.10;;;;;;5052271;28;20296;-55
2021/09/21 11:56:48;;;;;;;6.40;4.43;;;21.00;93.50;;;;;;5053257;28;20237;-55
2021/09/21 11:59:17;;;;;;;5.65;4.10;;;21.10;93.10;;;;;;5053062;28;20225;-55
2021/09/21 12:01:49;;;;;;;4.85;4.38;;;21.10;93.50;;;;;;5053265;28;20674;-55
2021/09/21 12:04:17;;;;;;;5.72;4.63;;;20.90;93.80;;;;;;5053092;28;20236;-55
2021/09/21 12:06:45;;;;;;;5.18;4.60;;;21.00;93.70;;;;;;5053396;28;20206;-55
2021/09/21 12:09:12;;;;;;;7.60;4.55;;;21.30;93.80;;;;;;5053133;28;20283;-57
2021/09/21 12:11:43;;;;;;;5.53;4.78;;;21.40;93.90;;;;;;5053576;28;20209;-55
2021/09/21 12:14:10;;;;;;;7.70;5.28;;;21.30;94.00;;;;;;5053285;28;20209;-57
2021/09/21 12:16:36;;;;;;;9.00;5.18;;;21.10;94.20;;;;;;5053047;28;20216;-56
2021/09/21 12:19:13;;;;;;;6.30;5.03;;;20.70;94.30;;;;;;5052896;28;20237;-55
2021/09/21 12:21:44;;;;;;;5.68;4.88;;;20.40;94.40;;;;;;5053207;28;20209;-57
2021/09/21 12:24:10;;;;;;;6.22;5.30;;;20.00;94.70;;;;;;5052791;28;20233;-56
2021/09/21 12:26:37;;;;;;;5.00;4.50;;;19.80;95.10;;;;;;5052784;28;20212;-55
2021/09/21 12:29:07;;;;;;;5.38;4.40;;;19.90;95.20;;;;;;5052136;28;20622;-58
2021/09/21 12:31:36;;;;;;;5.97;5.20;;;19.90;95.10;;;;;;5052978;28;20210;-56
2021/09/21 12:34:09;;;;;;;5.47;4.95;;;20.30;94.40;;;;;;5052422;28;20205;-55
2021/09/21 12:36:42;;;;;;;6.55;5.03;;;20.50;94.40;;;;;;5052309;28;20682;-57
2021/09/21 12:39:13;;;;;;;5.70;5.20;;;20.60;94.10;;;;;;5052725;28;20226;-58
2021/09/21 12:41:41;;;;;;;8.57;5.10;;;20.50;94.10;;;;;;5052395;28;20205;-54
2021/09/21 12:44:09;;;;;;;5.15;4.40;;;20.70;94.20;;;;;;5052066;28;20210;-56
2021/09/21 12:46:39;;;;;;;6.60;4.57;;;20.90;94.70;;;;;;5052241;28;20214;-55
2021/09/21 12:49:06;;;;;;;6.47;4.60;;;20.80;94.80;;;;;;5052240;28;20225;-55
2021/09/21 12:51:35;;;;;;;5.30;4.80;;;20.50;94.70;;;;;;5051748;28;20436;-62
2021/09/21 12:54:02;;;;;;;5.50;5.00;;;20.20;95.00;;;;;;5051879;28;20711;-55